sensor_id;sensor_type;location;lat;lon;timestamp;pressure;altitude;pressure_sealevel;temperature;humidity
49947;BME280;35839;48.662;13.300;2023-01-31T05:33:26;97963.53;;;1.94;100.00
49947;BME280;35839;48.662;13.300;2023-01-31T05:35:52;97964.88;;;2.01;100.00
49947;BME280;35839;48.662;13.300;2023-01-31T05:38:17;97966.88;;;1.96;100.00
49947;BME280;35839;48.662;13.300;2023-01-31T05:40:42;97961.72;;;1.96;100.00
49947;BME280;35839;48.662;13.300;2023-01-31T05:43:07;97959.38;;;1.92;100.00
49947;BME280;35839;48.662;13.300;2023-01-31T05:45:33;97967.69;;;1.97;100.00
49947;BME280;35839;48.662;13.300;2023-01-31T05:47:58;97975.00;;;1.88;100.00
49947;BME280;35839;48.662;13.300;2023-01-31T05:50:24;97960.34;;;2.05;100.00
49947;BME280;35839;48.662;13.300;2023-01-31T05:52:54;97970.88;;;2.02;100.00
49947;BME280;35839;48.662;13.300;2023-01-31T05:55:20;97968.59;;;1.96;100.00
49947;BME280;35839;48.662;13.300;2023-01-31T05:57:46;97959.88;;;1.98;100.00
49947;BME280;35839;48.662;13.300;2023-01-31T06:00:14;97966.13;;;1.94;100.00
49947;BME280;35839;48.662;13.300;2023-01-31T06:02:40;97967.38;;;1.87;100.00
49947;BME280;35839;48.662;13.300;2023-01-31T06:05:07;97960.03;;;1.95;100.00
49947;BME280;35839;48.662;13.300;2023-01-31T06:07:32;97985.34;;;2.04;100.00
49947;BME280;35839;48.662;13.300;2023-01-31T06:09:58;97983.34;;;2.09;100.00
49947;BME280;35839;48.662;13.300;2023-01-31T06:12:23;97980.38;;;2.01;100.00
49947;BME280;35839;48.662;13.300;2023-01-31T06:14:48;97977.03;;;1.99;100.00
49947;BME280;35839;48.662;13.300;2023-01-31T06:17:14;97980.13;;;2.06;100.00
49947;BME280;35839;48.662;13.300;2023-01-31T06:19:40;97983.03;;;2.00;100.00
49947;BME280;35839;48.662;13.300;2023-01-31T06:22:06;97990.50;;;1.88;100.00
49947;BME280;35839;48.662;13.300;2023-01-31T06:24:32;97987.53;;;1.96;100.00
49947;BME280;35839;48.662;13.300;2023-01-31T06:26:57;97981.94;;;1.88;100.00
49947;BME280;35839;48.662;13.300;2023-01-31T06:29:22;97984.72;;;2.01;100.00
49947;BME280;35839;48.662;13.300;2023-01-31T06:31:48;97990.69;;;2.01;100.00
49947;BME280;35839;48.662;13.300;2023-01-31T06:34:13;98005.69;;;1.95;100.00
49947;BME280;35839;48.662;13.300;2023-01-31T06:36:38;98011.84;;;1.92;100.00
49947;BME280;35839;48.662;13.300;2023-01-31T06:39:04;98002.34;;;1.93;100.00
49947;BME280;35839;48.662;13.300;2023-01-31T06:41:29;98008.00;;;1.83;100.00
49947;BME280;35839;48.662;13.300;2023-01-31T06:43:55;98010.69;;;1.82;100.00
49947;BME280;35839;48.662;13.300;2023-01-31T06:46:21;98009.75;;;1.83;100.00
49947;BME280;35839;48.662;13.300;2023-01-31T06:48:47;98023.69;;;1.96;100.00
49947;BME280;35839;48.662;13.300;2023-01-31T06:51:13;98019.91;;;1.86;100.00
49947;BME280;35839;48.662;13.300;2023-01-31T06:53:38;98012.03;;;1.89;100.00
49947;BME280;35839;48.662;13.300;2023-01-31T06:56:04;98018.16;;;1.86;100.00
49947;BME280;35839;48.662;13.300;2023-01-31T06:58:29;98027.34;;;1.92;100.00
49947;BME280;35839;48.662;13.300;2023-01-31T07:00:54;98025.53;;;1.94;100.00
49947;BME280;35839;48.662;13.300;2023-01-31T07:03:20;98033.66;;;1.86;100.00
49947;BME280;35839;48.662;13.300;2023-01-31T07:05:45;98031.00;;;1.88;100.00
49947;BME280;35839;48.662;13.300;2023-01-31T07:08:11;98036.09;;;1.89;100.00
49947;BME280;35839;48.662;13.300;2023-01-31T07:10:36;98035.84;;;1.94;100.00
49947;BME280;35839;48.662;13.300;2023-01-31T07:13:02;98043.59;;;1.94;100.00
49947;BME280;35839;48.662;13.300;2023-01-31T07:15:27;98036.94;;;2.06;100.00
49947;BME280;35839;48.662;13.300;2023-01-31T07:17:59;98038.38;;;2.11;100.00
49947;BME280;35839;48.662;13.300;2023-01-31T07:20:25;98039.84;;;2.00;100.00
49947;BME280;35839;48.662;13.300;2023-01-31T07:22:54;98048.19;;;2.05;100.00
49947;BME280;35839;48.662;13.300;2023-01-31T07:25:20;98057.22;;;2.14;100.00
49947;BME280;35839;48.662;13.300;2023-01-31T07:27:45;98050.88;;;2.03;100.00
49947;BME280;35839;48.662;13.300;2023-01-31T07:30:11;98053.47;;;2.19;100.00
49947;BME280;35839;48.662;13.300;2023-01-31T07:32:36;98039.28;;;2.10;100.00
49947;BME280;35839;48.662;13.300;2023-01-31T07:35:01;98044.34;;;1.96;100.00
49947;BME280;35839;48.662;13.300;2023-01-31T07:37:27;98045.34;;;2.09;100.00
49947;BME280;35839;48.662;13.300;2023-01-31T07:39:52;98045.84;;;2.00;100.00
49947;BME280;35839;48.662;13.300;2023-01-31T07:42:17;98058.22;;;2.11;100.00
49947;BME280;35839;48.662;13.300;2023-01-31T07:44:43;98069.84;;;2.02;100.00
49947;BME280;35839;48.662;13.300;2023-01-31T07:47:08;98056.78;;;2.05;100.00
49947;BME280;35839;48.662;13.300;2023-01-31T07:49:33;98048.19;;;2.05;100.00
49947;BME280;35839;48.662;13.300;2023-01-31T07:52:00;98051.88;;;2.17;100.00
49947;BME280;35839;48.662;13.300;2023-01-31T07:54:25;98062.88;;;2.20;100.00
49947;BME280;35839;48.662;13.300;2023-01-31T07:56:51;98071.63;;;2.18;100.00
49947;BME280;35839;48.662;13.300;2023-01-31T07:59:16;98080.28;;;2.17;100.00
49947;BME280;35839;48.662;13.300;2023-01-31T08:01:41;98069.38;;;2.11;100.00
49947;BME280;35839;48.662;13.300;2023-01-31T08:04:25;98082.72;;;2.20;100.00
49947;BME280;35839;48.662;13.300;2023-01-31T08:06:53;98088.22;;;2.14;100.00
49947;BME280;35839;48.662;13.300;2023-01-31T08:09:20;98088.56;;;2.23;100.00
49947;BME280;35839;48.662;13.300;2023-01-31T08:11:45;98096.25;;;2.25;100.00
49947;BME280;35839;48.662;13.300;2023-01-31T08:14:10;98086.72;;;2.25;100.00
49947;BME280;35839;48.662;13.300;2023-01-31T08:16:36;98093.59;;;2.26;100.00
49947;BME280;35839;48.662;13.300;2023-01-31T08:19:02;98095.66;;;2.20;100.00
49947;BME280;35839;48.662;13.300;2023-01-31T08:21:27;98095.19;;;2.11;100.00
49947;BME280;35839;48.662;13.300;2023-01-31T08:23:52;98084.81;;;2.13;100.00
49947;BME280;35839;48.662;13.300;2023-01-31T08:26:20;98098.41;;;2.32;100.00
49947;BME280;35839;48.662;13.300;2023-01-31T08:28:47;98102.25;;;2.25;100.00
49947;BME280;35839;48.662;13.300;2023-01-31T08:31:16;98102.94;;;2.29;100.00
49947;BME280;35839;48.662;13.300;2023-01-31T08:33:42;98097.34;;;2.37;100.00
49947;BME280;35839;48.662;13.300;2023-01-31T08:38:34;98098.66;;;2.28;100.00
49947;BME280;35839;48.662;13.300;2023-01-31T08:40:59;98090.91;;;2.28;100.00
49947;BME280;35839;48.662;13.300;2023-01-31T08:43:24;98096.75;;;2.31;100.00
49947;BME280;35839;48.662;13.300;2023-01-31T08:45:49;98092.25;;;2.35;100.00
49947;BME280;35839;48.662;13.300;2023-01-31T08:48:15;98102.44;;;2.54;100.00
49947;BME280;35839;48.662;13.300;2023-01-31T08:50:40;98110.03;;;2.57;100.00
49947;BME280;35839;48.662;13.300;2023-01-31T08:53:05;98113.94;;;2.48;100.00
49947;BME280;35839;48.662;13.300;2023-01-31T08:55:34;98112.28;;;2.47;100.00
49947;BME280;35839;48.662;13.300;2023-01-31T08:57:59;98114.75;;;2.33;100.00
49947;BME280;35839;48.662;13.300;2023-01-31T09:00:26;98122.88;;;2.43;100.00
49947;BME280;35839;48.662;13.300;2023-01-31T09:02:53;98127.47;;;2.53;100.00
49947;BME280;35839;48.662;13.300;2023-01-31T09:05:18;98124.34;;;2.47;100.00
49947;BME280;35839;48.662;13.300;2023-01-31T09:07:44;98126.31;;;2.59;100.00
49947;BME280;35839;48.662;13.300;2023-01-31T09:10:09;98128.97;;;2.58;100.00
49947;BME280;35839;48.662;13.300;2023-01-31T09:12:35;98119.28;;;2.45;100.00
49947;BME280;35839;48.662;13.300;2023-01-31T09:15:01;98122.16;;;2.57;100.00
49947;BME280;35839;48.662;13.300;2023-01-31T09:17:27;98130.47;;;2.62;100.00
49947;BME280;35839;48.662;13.300;2023-01-31T09:19:52;98123.56;;;2.62;100.00
49947;BME280;35839;48.662;13.300;2023-01-31T09:22:18;98118.47;;;2.61;100.00
49947;BME280;35839;48.662;13.300;2023-01-31T09:24:45;98116.88;;;2.74;100.00
49947;BME280;35839;48.662;13.300;2023-01-31T09:27:11;98122.06;;;2.74;100.00
49947;BME280;35839;48.662;13.300;2023-01-31T09:29:36;98115.81;;;2.78;100.00
49947;BME280;35839;48.662;13.300;2023-01-31T09:32:02;98116.78;;;2.60;100.00
49947;BME280;35839;48.662;13.300;2023-01-31T09:34:28;98119.06;;;2.66;100.00
49947;BME280;35839;48.662;13.300;2023-01-31T09:36:53;98117.72;;;2.74;100.00
49947;BME280;35839;48.662;13.300;2023-01-31T09:39:21;98105.59;;;2.75;100.00
49947;BME280;35839;48.662;13.300;2023-01-31T09:45:03;98107.94;;;2.80;100.00
49947;BME280;35839;48.662;13.300;2023-01-31T09:47:35;98112.28;;;2.79;100.00
49947;BME280;35839;48.662;13.300;2023-01-31T09:52:44;98114.47;;;2.71;100.00
49947;BME280;35839;48.662;13.300;2023-01-31T09:55:17;98112.78;;;2.70;100.00
49947;BME280;35839;48.662;13.300;2023-01-31T09:58:06;98115.22;;;2.73;100.00
49947;BME280;35839;48.662;13.300;2023-01-31T10:00:42;98103.78;;;2.77;100.00
49947;BME280;35839;48.662;13.300;2023-01-31T10:03:36;98100.63;;;2.72;100.00
49947;BME280;35839;48.662;13.300;2023-01-31T10:06:19;98107.28;;;2.92;100.00
49947;BME280;35839;48.662;13.300;2023-01-31T10:08:54;98106.44;;;3.07;100.00
49947;BME280;35839;48.662;13.300;2023-01-31T10:11:33;98107.94;;;2.95;100.00
49947;BME280;35839;48.662;13.300;2023-01-31T10:16:59;98103.03;;;2.91;100.00
49947;BME280;35839;48.662;13.300;2023-01-31T10:19:32;98106.44;;;3.07;100.00
49947;BME280;35839;48.662;13.300;2023-01-31T10:22:06;98113.69;;;3.01;100.00
49947;BME280;35839;48.662;13.300;2023-01-31T10:24:44;98109.69;;;3.11;100.00
49947;BME280;35839;48.662;13.300;2023-01-31T10:27:39;98098.16;;;3.01;100.00
49947;BME280;35839;48.662;13.300;2023-01-31T10:30:17;98097.75;;;3.08;100.00
49947;BME280;35839;48.662;13.300;2023-01-31T10:32:47;98079.88;;;3.20;100.00
49947;BME280;35839;48.662;13.300;2023-01-31T10:35:23;98082.53;;;3.18;100.00
49947;BME280;35839;48.662;13.300;2023-01-31T10:37:58;98089.19;;;3.08;100.00
49947;BME280;35839;48.662;13.300;2023-01-31T10:40:32;98099.16;;;3.14;100.00
49947;BME280;35839;48.662;13.300;2023-01-31T10:43:07;98081.56;;;3.05;100.00
49947;BME280;35839;48.662;13.300;2023-01-31T10:45:33;98087.31;;;3.10;100.00
49947;BME280;35839;48.662;13.300;2023-01-31T10:48:17;98089.03;;;3.25;100.00
49947;BME280;35839;48.662;13.300;2023-01-31T10:50:56;98076.78;;;3.29;100.00
49947;BME280;35839;48.662;13.300;2023-01-31T10:53:46;98071.69;;;3.27;100.00
49947;BME280;35839;48.662;13.300;2023-01-31T10:56:48;98082.88;;;3.12;100.00
49947;BME280;35839;48.662;13.300;2023-01-31T10:59:35;98063.75;;;3.14;100.00
49947;BME280;35839;48.662;13.300;2023-01-31T11:02:02;98065.94;;;3.22;100.00
49947;BME280;35839;48.662;13.300;2023-01-31T11:04:34;98060.09;;;3.03;100.00
49947;BME280;35839;48.662;13.300;2023-01-31T11:07:02;98052.34;;;3.03;100.00
49947;BME280;35839;48.662;13.300;2023-01-31T11:09:33;98055.19;;;2.98;100.00
49947;BME280;35839;48.662;13.300;2023-01-31T11:12:01;98050.25;;;3.09;100.00
49947;BME280;35839;48.662;13.300;2023-01-31T11:14:26;98042.38;;;2.97;100.00
49947;BME280;35839;48.662;13.300;2023-01-31T11:17:19;98042.59;;;3.08;100.00
49947;BME280;35839;48.662;13.300;2023-01-31T11:19:48;98038.50;;;3.04;100.00
49947;BME280;35839;48.662;13.300;2023-01-31T11:22:21;98041.66;;;3.09;100.00
49947;BME280;35839;48.662;13.300;2023-01-31T11:24:48;98039.25;;;3.06;100.00
49947;BME280;35839;48.662;13.300;2023-01-31T11:27:24;98029.06;;;3.03;100.00
49947;BME280;35839;48.662;13.300;2023-01-31T11:29:50;98022.81;;;3.07;100.00
49947;BME280;35839;48.662;13.300;2023-01-31T11:32:24;98023.78;;;3.20;100.00
49947;BME280;35839;48.662;13.300;2023-01-31T11:37:22;98020.44;;;3.18;100.00
49947;BME280;35839;48.662;13.300;2023-01-31T11:40:00;98018.44;;;3.07;100.00
49947;BME280;35839;48.662;13.300;2023-01-31T11:42:26;98007.16;;;3.24;100.00
49947;BME280;35839;48.662;13.300;2023-01-31T11:47:19;98012.88;;;3.29;100.00
49947;BME280;35839;48.662;13.300;2023-01-31T11:49:49;98005.50;;;3.52;100.00
49947;BME280;35839;48.662;13.300;2023-01-31T11:52:16;98004.78;;;3.50;100.00
49947;BME280;35839;48.662;13.300;2023-01-31T11:54:48;98001.59;;;3.30;100.00
49947;BME280;35839;48.662;13.300;2023-01-31T11:57:35;98007.19;;;3.38;100.00
49947;BME280;35839;48.662;13.300;2023-01-31T12:00:06;97994.78;;;3.29;100.00
49947;BME280;35839;48.662;13.300;2023-01-31T12:02:41;97983.13;;;3.36;100.00
49947;BME280;35839;48.662;13.300;2023-01-31T12:05:15;97987.03;;;3.44;100.00
49947;BME280;35839;48.662;13.300;2023-01-31T12:07:48;97982.38;;;3.34;100.00
49947;BME280;35839;48.662;13.300;2023-01-31T12:10:40;97973.13;;;3.45;100.00
49947;BME280;35839;48.662;13.300;2023-01-31T12:13:17;97956.84;;;3.28;100.00
49947;BME280;35839;48.662;13.300;2023-01-31T12:16:00;97969.25;;;3.37;100.00
49947;BME280;35839;48.662;13.300;2023-01-31T12:21:27;97962.72;;;3.61;100.00
49947;BME280;35839;48.662;13.300;2023-01-31T12:24:10;97968.91;;;3.44;100.00
49947;BME280;35839;48.662;13.300;2023-01-31T12:43:00;97976.59;;;3.45;100.00
49947;BME280;35839;48.662;13.300;2023-01-31T12:49:01;97959.63;;;3.25;100.00
49947;BME280;35839;48.662;13.300;2023-01-31T12:51:39;97952.63;;;3.27;100.00
49947;BME280;35839;48.662;13.300;2023-01-31T12:54:28;97949.75;;;3.17;100.00
49947;BME280;35839;48.662;13.300;2023-01-31T13:06:10;97934.81;;;3.07;100.00
49947;BME280;35839;48.662;13.300;2023-01-31T13:08:44;97926.53;;;3.16;100.00
49947;BME280;35839;48.662;13.300;2023-01-31T13:11:18;97920.88;;;3.24;100.00
49947;BME280;35839;48.662;13.300;2023-01-31T13:13:49;97918.22;;;3.25;100.00
49947;BME280;35839;48.662;13.300;2023-01-31T13:16:38;97920.81;;;3.25;100.00
49947;BME280;35839;48.662;13.300;2023-01-31T13:19:06;97914.88;;;3.23;100.00
49947;BME280;35839;48.662;13.300;2023-01-31T13:21:41;97918.97;;;3.42;100.00
49947;BME280;35839;48.662;13.300;2023-01-31T13:26:45;97911.75;;;3.61;100.00
49947;BME280;35839;48.662;13.300;2023-01-31T13:29:16;97918.06;;;3.57;100.00
49947;BME280;35839;48.662;13.300;2023-01-31T13:32:08;97924.34;;;3.38;100.00
49947;BME280;35839;48.662;13.300;2023-01-31T13:34:42;97932.84;;;3.41;100.00
49947;BME280;35839;48.662;13.300;2023-01-31T13:37:13;97938.72;;;3.28;100.00
49947;BME280;35839;48.662;13.300;2023-01-31T13:39:47;97927.28;;;3.47;100.00
49947;BME280;35839;48.662;13.300;2023-01-31T13:42:14;97942.25;;;3.42;100.00
49947;BME280;35839;48.662;13.300;2023-01-31T13:44:41;97936.63;;;3.49;100.00
49947;BME280;35839;48.662;13.300;2023-01-31T13:49:47;97940.78;;;3.52;100.00
49947;BME280;35839;48.662;13.300;2023-01-31T13:52:20;97923.69;;;3.64;100.00
49947;BME280;35839;48.662;13.300;2023-01-31T13:54:52;97928.56;;;3.54;100.00
49947;BME280;35839;48.662;13.300;2023-01-31T13:57:42;97928.97;;;3.48;100.00
49947;BME280;35839;48.662;13.300;2023-01-31T14:00:39;97907.03;;;3.53;100.00
49947;BME280;35839;48.662;13.300;2023-01-31T14:03:10;97906.13;;;3.54;100.00
49947;BME280;35839;48.662;13.300;2023-01-31T14:11:00;97881.78;;;3.71;100.00
49947;BME280;35839;48.662;13.300;2023-01-31T14:15:57;97872.91;;;3.61;100.00
49947;BME280;35839;48.662;13.300;2023-01-31T14:18:42;97878.34;;;3.56;100.00
49947;BME280;35839;48.662;13.300;2023-01-31T14:23:58;97882.38;;;3.48;100.00
49947;BME280;35839;48.662;13.300;2023-01-31T14:29:27;97885.50;;;3.53;100.00
49947;BME280;35839;48.662;13.300;2023-01-31T14:31:54;97869.59;;;3.30;100.00
49947;BME280;35839;48.662;13.300;2023-01-31T14:34:24;97867.84;;;3.31;100.00
49947;BME280;35839;48.662;13.300;2023-01-31T14:55:39;97868.47;;;3.49;100.00
49947;BME280;35839;48.662;13.300;2023-01-31T14:58:15;97870.88;;;3.52;100.00
49947;BME280;35839;48.662;13.300;2023-01-31T15:00:49;97868.47;;;3.49;100.00
49947;BME280;35839;48.662;13.300;2023-01-31T15:03:25;97874.22;;;3.40;100.00
49947;BME280;35839;48.662;13.300;2023-01-31T15:06:26;97870.72;;;3.41;100.00
49947;BME280;35839;48.662;13.300;2023-01-31T15:11:52;97874.41;;;3.36;100.00
49947;BME280;35839;48.662;13.300;2023-01-31T15:17:24;97858.41;;;3.30;100.00
49947;BME280;35839;48.662;13.300;2023-01-31T15:20:32;97851.88;;;3.24;100.00
49947;BME280;35839;48.662;13.300;2023-01-31T15:22:49;97853.53;;;3.25;100.00
49947;BME280;35839;48.662;13.300;2023-01-31T15:27:47;97860.53;;;3.23;100.00
49947;BME280;35839;48.662;13.300;2023-01-31T15:30:19;97867.41;;;3.24;100.00
49947;BME280;35839;48.662;13.300;2023-01-31T15:33:21;97878.19;;;3.16;100.00
49947;BME280;35839;48.662;13.300;2023-01-31T15:36:02;97867.75;;;3.32;100.00
49947;BME280;35839;48.662;13.300;2023-01-31T15:43:48;97884.94;;;3.19;100.00
49947;BME280;35839;48.662;13.300;2023-01-31T15:48:43;97895.81;;;3.10;100.00
49947;BME280;35839;48.662;13.300;2023-01-31T15:51:11;97881.03;;;3.12;100.00
49947;BME280;35839;48.662;13.300;2023-01-31T15:53:40;97864.88;;;3.08;100.00
49947;BME280;35839;48.662;13.300;2023-01-31T15:56:14;97873.75;;;3.19;100.00
49947;BME280;35839;48.662;13.300;2023-01-31T15:58:45;97858.69;;;3.25;100.00
49947;BME280;35839;48.662;13.300;2023-01-31T16:01:14;97821.53;;;3.26;100.00
49947;BME280;35839;48.662;13.300;2023-01-31T16:03:47;97848.06;;;3.01;100.00
49947;BME280;35839;48.662;13.300;2023-01-31T16:06:29;97869.78;;;2.99;100.00
49947;BME280;35839;48.662;13.300;2023-01-31T16:08:57;97874.22;;;2.97;100.00
49947;BME280;35839;48.662;13.300;2023-01-31T16:11:24;97852.38;;;3.01;100.00
49947;BME280;35839;48.662;13.300;2023-01-31T16:13:54;97855.28;;;3.10;100.00
49947;BME280;35839;48.662;13.300;2023-01-31T16:16:21;97834.31;;;3.15;100.00
49947;BME280;35839;48.662;13.300;2023-01-31T16:18:50;97825.25;;;3.22;100.00
49947;BME280;35839;48.662;13.300;2023-01-31T16:24:07;97835.22;;;3.14;100.00
49947;BME280;35839;48.662;13.300;2023-01-31T16:26:39;97842.06;;;3.15;100.00
49947;BME280;35839;48.662;13.300;2023-01-31T16:29:12;97852.78;;;2.94;100.00
49947;BME280;35839;48.662;13.300;2023-01-31T16:31:47;97855.63;;;3.04;100.00
49947;BME280;35839;48.662;13.300;2023-01-31T16:34:22;97856.72;;;3.00;100.00
49947;BME280;35839;48.662;13.300;2023-01-31T16:41:57;97865.91;;;3.34;100.00
49947;BME280;35839;48.662;13.300;2023-01-31T16:44:27;97867.66;;;3.20;100.00
49947;BME280;35839;48.662;13.300;2023-01-31T16:46:53;97871.63;;;3.11;100.00
49947;BME280;35839;48.662;13.300;2023-01-31T16:49:25;97862.66;;;3.31;100.00
49947;BME280;35839;48.662;13.300;2023-01-31T16:52:08;97861.75;;;3.32;100.00
49947;BME280;35839;48.662;13.300;2023-01-31T16:54:49;97872.00;;;3.19;100.00
49947;BME280;35839;48.662;13.300;2023-01-31T16:57:34;97876.44;;;3.31;100.00
49947;BME280;35839;48.662;13.300;2023-01-31T17:00:03;97884.03;;;3.34;100.00
49947;BME280;35839;48.662;13.300;2023-01-31T17:02:32;97890.56;;;3.26;100.00
49947;BME280;35839;48.662;13.300;2023-01-31T17:05:20;97881.78;;;3.14;100.00
49947;BME280;35839;48.662;13.300;2023-01-31T17:07:47;97882.19;;;3.22;100.00
49947;BME280;35839;48.662;13.300;2023-01-31T17:10:20;97877.19;;;3.33;100.00
49947;BME280;35839;48.662;13.300;2023-01-31T17:12:48;97873.13;;;3.29;100.00
49947;BME280;35839;48.662;13.300;2023-01-31T17:15:17;97876.88;;;3.09;100.00
49947;BME280;35839;48.662;13.300;2023-01-31T17:17:43;97878.09;;;3.04;100.00
49947;BME280;35839;48.662;13.300;2023-01-31T17:20:12;97881.59;;;3.03;100.00
49947;BME280;35839;48.662;13.300;2023-01-31T17:22:37;97877.44;;;3.00;100.00
49947;BME280;35839;48.662;13.300;2023-01-31T17:25:18;97883.00;;;3.08;100.00
49947;BME280;35839;48.662;13.300;2023-01-31T17:27:47;97883.28;;;3.04;100.00
49947;BME280;35839;48.662;13.300;2023-01-31T17:30:14;97879.41;;;3.11;100.00
49947;BME280;35839;48.662;13.300;2023-01-31T17:32:39;97881.25;;;3.09;100.00
49947;BME280;35839;48.662;13.300;2023-01-31T17:35:22;97875.25;;;3.08;100.00
49947;BME280;35839;48.662;13.300;2023-01-31T17:37:48;97885.88;;;3.18;100.00
49947;BME280;35839;48.662;13.300;2023-01-31T17:40:13;97878.66;;;3.23;100.00
49947;BME280;35839;48.662;13.300;2023-01-31T17:42:39;97878.72;;;3.07;100.00
49947;BME280;35839;48.662;13.300;2023-01-31T17:45:05;97877.53;;;2.99;100.00
49947;BME280;35839;48.662;13.300;2023-01-31T17:47:30;97868.03;;;2.99;100.00
49947;BME280;35839;48.662;13.300;2023-01-31T17:49:56;97868.75;;;3.01;100.00
49947;BME280;35839;48.662;13.300;2023-01-31T17:52:22;97860.53;;;2.94;100.00
49947;BME280;35839;48.662;13.300;2023-01-31T17:54:48;97857.00;;;2.81;100.00
49947;BME280;35839;48.662;13.300;2023-01-31T17:57:13;97849.25;;;2.95;100.00
49947;BME280;35839;48.662;13.300;2023-01-31T17:59:39;97854.25;;;2.99;100.00
49947;BME280;35839;48.662;13.300;2023-01-31T18:02:05;97860.06;;;2.88;100.00
49947;BME280;35839;48.662;13.300;2023-01-31T18:04:30;97850.19;;;2.94;100.00
49947;BME280;35839;48.662;13.300;2023-01-31T18:06:56;97853.03;;;2.90;100.00
49947;BME280;35839;48.662;13.300;2023-01-31T18:09:21;97847.03;;;2.89;100.00
49947;BME280;35839;48.662;13.300;2023-01-31T18:11:46;97849.72;;;2.88;100.00
49947;BME280;35839;48.662;13.300;2023-01-31T18:14:12;97845.75;;;2.97;100.00
49947;BME280;35839;48.662;13.300;2023-01-31T18:16:39;97850.16;;;2.80;100.00
49947;BME280;35839;48.662;13.300;2023-01-31T18:19:04;97856.44;;;2.90;100.00
49947;BME280;35839;48.662;13.300;2023-01-31T18:21:29;97856.09;;;2.82;100.00
49947;BME280;35839;48.662;13.300;2023-01-31T18:23:55;97861.44;;;2.93;100.00
49947;BME280;35839;48.662;13.300;2023-01-31T18:26:22;97860.88;;;2.74;100.00
49947;BME280;35839;48.662;13.300;2023-01-31T18:28:49;97868.00;;;2.85;100.00
49947;BME280;35839;48.662;13.300;2023-01-31T18:31:15;97864.13;;;2.92;100.00
49947;BME280;35839;48.662;13.300;2023-01-31T18:33:42;97866.44;;;2.82;100.00
49947;BME280;35839;48.662;13.300;2023-01-31T18:36:13;97864.91;;;2.64;100.00
49947;BME280;35839;48.662;13.300;2023-01-31T18:38:40;97865.84;;;2.77;100.00
49947;BME280;35839;48.662;13.300;2023-01-31T18:41:08;97858.00;;;2.79;100.00
49947;BME280;35839;48.662;13.300;2023-01-31T18:43:34;97862.50;;;2.75;100.00
49947;BME280;35839;48.662;13.300;2023-01-31T18:46:04;97864.47;;;2.71;100.00
49947;BME280;35839;48.662;13.300;2023-01-31T18:48:30;97873.22;;;2.69;100.00
49947;BME280;35839;48.662;13.300;2023-01-31T18:51:03;97878.84;;;2.61;100.00
49947;BME280;35839;48.662;13.300;2023-01-31T18:53:36;97873.75;;;2.60;100.00
49947;BME280;35839;48.662;13.300;2023-01-31T18:56:03;97869.06;;;2.66;100.00
49947;BME280;35839;48.662;13.300;2023-01-31T18:58:31;97871.56;;;2.68;100.00
49947;BME280;35839;48.662;13.300;2023-01-31T19:01:08;97874.78;;;2.57;100.00
49947;BME280;35839;48.662;13.300;2023-01-31T19:03:34;97871.75;;;2.65;100.00
49947;BME280;35839;48.662;13.300;2023-01-31T19:06:16;97872.97;;;2.73;100.00
49947;BME280;35839;48.662;13.300;2023-01-31T19:08:42;97876.56;;;2.71;100.00
49947;BME280;35839;48.662;13.300;2023-01-31T19:11:12;97866.00;;;2.29;100.00
49947;BME280;35839;48.662;13.300;2023-01-31T19:13:39;97878.34;;;2.40;100.00
49947;BME280;35839;48.662;13.300;2023-01-31T19:16:17;97874.50;;;2.31;100.00
49947;BME280;35839;48.662;13.300;2023-01-31T19:18:42;97868.91;;;2.39;100.00
49947;BME280;35839;48.662;13.300;2023-01-31T19:23:47;97867.84;;;2.27;100.00
49947;BME280;35839;48.662;13.300;2023-01-31T19:26:13;97874.03;;;2.09;100.00
49947;BME280;35839;48.662;13.300;2023-01-31T19:28:40;97871.75;;;2.19;100.00
49947;BME280;35839;48.662;13.300;2023-01-31T19:31:08;97876.19;;;2.17;100.00
49947;BME280;35839;48.662;13.300;2023-01-31T19:33:34;97877.44;;;2.09;100.00
49947;BME280;35839;48.662;13.300;2023-01-31T19:36:15;97870.88;;;2.04;100.00
49947;BME280;35839;48.662;13.300;2023-01-31T19:38:40;97868.88;;;2.09;100.00
49947;BME280;35839;48.662;13.300;2023-01-31T19:41:08;97871.88;;;2.01;100.00
49947;BME280;35839;48.662;13.300;2023-01-31T19:43:34;97873.53;;;2.02;100.00
49947;BME280;35839;48.662;13.300;2023-01-31T19:46:00;97881.47;;;1.99;100.00
49947;BME280;35839;48.662;13.300;2023-01-31T19:48:25;97877.72;;;1.89;100.00
49947;BME280;35839;48.662;13.300;2023-01-31T19:50:53;97874.28;;;2.04;100.00
49947;BME280;35839;48.662;13.300;2023-01-31T19:53:18;97868.66;;;1.82;100.00
49947;BME280;35839;48.662;13.300;2023-01-31T19:55:43;97874.06;;;1.77;100.00
49947;BME280;35839;48.662;13.300;2023-01-31T19:58:09;97859.22;;;1.81;100.00
49947;BME280;35839;48.662;13.300;2023-01-31T20:00:34;97851.72;;;1.92;100.00
49947;BME280;35839;48.662;13.300;2023-01-31T20:02:59;97852.41;;;1.80;100.00
49947;BME280;35839;48.662;13.300;2023-01-31T20:05:25;97850.56;;;1.82;100.00
49947;BME280;35839;48.662;13.300;2023-01-31T20:07:51;97842.47;;;1.88;100.00
49947;BME280;35839;48.662;13.300;2023-01-31T20:10:17;97836.09;;;1.63;100.00
49947;BME280;35839;48.662;13.300;2023-01-31T20:12:43;97845.47;;;1.64;100.00
49947;BME280;35839;48.662;13.300;2023-01-31T20:15:09;97851.47;;;1.65;100.00
49947;BME280;35839;48.662;13.300;2023-01-31T20:17:35;97852.81;;;1.56;100.00
49947;BME280;35839;48.662;13.300;2023-01-31T20:20:01;97848.91;;;1.81;100.00
49947;BME280;35839;48.662;13.300;2023-01-31T20:22:28;97853.41;;;1.61;100.00
49947;BME280;35839;48.662;13.300;2023-01-31T20:24:54;97840.41;;;1.63;100.00
49947;BME280;35839;48.662;13.300;2023-01-31T20:27:22;97843.59;;;1.68;100.00
49947;BME280;35839;48.662;13.300;2023-01-31T20:29:48;97855.41;;;1.56;100.00